Time;durP1;ratioP1;P1;durP2;ratioP2;P2;SDS_P1;SDS_P2;PMS_P1;PMS_P2;Temp;Humidity;BMP_temperature;BMP_pressure;BME280_temperature;BME280_humidity;BME280_pressure;Samples;Min_cycle;Max_cycle;Signal;HPM_P1;HPM_P2
2021/08/03 00:02:25;;;;;;;2.90;1.73;;;13.50;99.90;;;;;;4927566;29;20970;-93
2021/08/03 00:04:58;;;;;;;2.27;1.93;;;13.50;99.90;;;;;;4923992;29;21038;-94
2021/08/03 00:07:26;;;;;;;1.73;1.60;;;13.50;99.90;;;;;;4925694;29;20667;-95
2021/08/03 00:09:55;;;;;;;1.60;1.50;;;13.50;99.90;;;;;;4921514;29;20640;-93
2021/08/03 00:12:24;;;;;;;3.20;2.70;;;13.50;99.90;;;;;;4926825;29;20619;-96
2021/08/03 00:14:53;;;;;;;2.93;1.70;;;13.50;99.90;;;;;;4927516;29;20670;-92
2021/08/03 00:17:24;;;;;;;3.10;1.97;;;13.50;99.90;;;;;;4927264;29;20674;-93
2021/08/03 00:19:51;;;;;;;1.90;1.80;;;13.50;99.90;;;;;;4926981;29;20635;-92
2021/08/03 00:22:22;;;;;;;2.57;1.40;;;13.50;99.90;;;;;;4924832;29;21285;-95
2021/08/03 00:24:49;;;;;;;2.43;1.63;;;13.50;99.90;;;;;;4920701;29;20640;-94
2021/08/03 00:27:16;;;;;;;2.70;1.63;;;13.50;99.90;;;;;;4924906;29;20648;-92
2021/08/03 00:29:45;;;;;;;1.60;1.50;;;13.50;99.90;;;;;;4921335;29;20667;-93
2021/08/03 00:32:12;;;;;;;2.33;1.70;;;13.60;99.90;;;;;;4924077;29;21163;-92
2021/08/03 00:34:39;;;;;;;1.63;1.53;;;13.60;99.90;;;;;;4928088;29;20670;-95
2021/08/03 00:37:08;;;;;;;2.00;1.60;;;13.60;99.90;;;;;;4922915;29;21111;-93
2021/08/03 00:39:36;;;;;;;2.17;2.07;;;13.60;99.90;;;;;;4923656;29;21074;-92
2021/08/03 00:42:04;;;;;;;2.27;1.97;;;13.60;99.90;;;;;;4924696;29;20667;-93
2021/08/03 00:44:42;;;;;;;2.17;1.83;;;13.60;99.90;;;;;;4927197;29;21008;-96
2021/08/03 00:47:11;;;;;;;4.83;1.70;;;13.70;99.90;;;;;;4929981;29;20658;-92
2021/08/03 00:49:39;;;;;;;2.67;2.00;;;13.70;99.90;;;;;;4921683;29;20648;-95
2021/08/03 00:52:08;;;;;;;2.07;1.97;;;13.70;99.90;;;;;;4926050;29;20643;-95
2021/08/03 00:54:35;;;;;;;2.07;1.90;;;13.70;99.90;;;;;;4926797;29;21202;-93
2021/08/03 00:57:02;;;;;;;2.40;2.07;;;13.70;99.90;;;;;;4920058;29;20744;-90
2021/08/03 00:59:29;;;;;;;3.27;2.47;;;13.70;99.90;;;;;;4921504;29;20862;-90
2021/08/03 01:01:57;;;;;;;1.93;1.70;;;13.70;99.90;;;;;;4919845;29;20674;-88
2021/08/03 01:04:25;;;;;;;2.33;2.10;;;13.80;99.90;;;;;;4919482;29;20737;-90
2021/08/03 01:07:04;;;;;;;2.50;2.30;;;13.80;99.90;;;;;;4925911;29;20655;-89
2021/08/03 01:09:43;;;;;;;2.20;2.10;;;13.80;99.90;;;;;;4916728;29;20627;-89
2021/08/03 01:12:22;;;;;;;2.97;2.23;;;13.90;99.90;;;;;;4925248;29;20660;-89
2021/08/03 01:14:55;;;;;;;2.90;2.57;;;13.90;99.90;;;;;;4922807;29;20639;-89
2021/08/03 01:17:32;;;;;;;3.07;2.20;;;13.90;99.90;;;;;;4925128;29;20857;-90
2021/08/03 01:20:06;;;;;;;3.63;3.00;;;13.90;99.90;;;;;;4921637;29;20616;-89
2021/08/03 01:22:51;;;;;;;2.73;2.57;;;13.90;99.90;;;;;;4926717;29;20624;-88
2021/08/03 01:25:26;;;;;;;2.80;2.60;;;14.00;99.90;;;;;;4922460;29;20995;-89
2021/08/03 01:28:25;;;;;;;2.63;2.43;;;14.00;99.90;;;;;;4921955;29;20651;-89
2021/08/03 01:30:55;;;;;;;2.27;2.10;;;13.90;99.90;;;;;;4862276;29;20713;-88
2021/08/03 01:33:24;;;;;;;4.17;2.37;;;13.90;99.90;;;;;;4909430;29;21179;-90
2021/08/03 01:35:53;;;;;;;2.67;2.50;;;13.90;99.90;;;;;;4920136;29;20632;-90
2021/08/03 01:38:23;;;;;;;2.90;2.27;;;13.90;99.90;;;;;;4922454;29;20624;-90
2021/08/03 01:40:53;;;;;;;2.60;2.40;;;13.80;99.90;;;;;;4919697;29;20655;-91
2021/08/03 01:43:20;;;;;;;3.63;2.10;;;13.90;99.90;;;;;;4918792;29;20639;-91
2021/08/03 01:45:49;;;;;;;2.50;2.30;;;13.80;99.90;;;;;;4926859;29;20669;-91
2021/08/03 01:48:18;;;;;;;2.37;2.20;;;13.80;99.90;;;;;;4921372;29;21261;-91
2021/08/03 01:50:49;;;;;;;4.07;2.10;;;13.80;99.90;;;;;;4922573;29;20682;-89
2021/08/03 01:53:18;;;;;;;3.63;2.37;;;13.80;99.90;;;;;;4922293;29;20658;-89
2021/08/03 01:55:46;;;;;;;2.13;2.00;;;13.80;99.90;;;;;;4919147;29;20719;-89
2021/08/03 01:58:15;;;;;;;2.80;2.20;;;13.80;99.90;;;;;;4918452;29;20627;-89
2021/08/03 02:00:43;;;;;;;3.40;2.30;;;13.80;99.90;;;;;;4921743;29;20667;-89
2021/08/03 02:03:11;;;;;;;3.23;2.20;;;13.80;99.90;;;;;;4922979;29;20640;-89
2021/08/03 02:05:39;;;;;;;2.60;2.40;;;13.80;99.90;;;;;;4918053;29;20672;-90
2021/08/03 02:08:07;;;;;;;3.17;2.50;;;13.80;99.90;;;;;;4916665;29;20650;-88
2021/08/03 02:10:36;;;;;;;3.77;2.40;;;13.80;99.90;;;;;;4921528;29;20663;-90
2021/08/03 02:13:04;;;;;;;3.00;2.37;;;13.80;99.90;;;;;;4922114;29;20638;-90
2021/08/03 02:15:30;;;;;;;3.00;2.23;;;13.90;99.90;;;;;;4923160;29;20635;-89
2021/08/03 02:17:57;;;;;;;3.00;2.37;;;13.90;99.90;;;;;;4923249;29;21171;-89
2021/08/03 02:20:26;;;;;;;2.93;2.30;;;13.80;99.90;;;;;;4925412;29;20666;-88
2021/08/03 02:22:53;;;;;;;2.47;2.10;;;13.90;99.90;;;;;;4926505;29;20643;-90
2021/08/03 02:25:20;;;;;;;2.50;2.20;;;13.90;99.90;;;;;;4922294;29;20652;-92
2021/08/03 02:27:46;;;;;;;2.20;2.07;;;13.90;99.90;;;;;;4923684;29;21054;-91
2021/08/03 02:30:14;;;;;;;4.63;2.43;;;13.90;99.90;;;;;;4919757;29;20691;-90
2021/08/03 02:32:45;;;;;;;4.20;2.50;;;13.90;99.90;;;;;;4929700;29;21151;-91
2021/08/03 02:35:15;;;;;;;2.70;2.47;;;13.90;99.90;;;;;;4926156;29;21010;-91
2021/08/03 02:37:48;;;;;;;2.93;2.60;;;13.90;99.90;;;;;;4924084;29;20647;-90
2021/08/03 02:40:15;;;;;;;2.23;2.13;;;13.90;99.90;;;;;;4923457;29;21090;-89
2021/08/03 02:42:43;;;;;;;3.20;2.20;;;13.90;99.90;;;;;;4918099;29;20624;-88
2021/08/03 02:45:12;;;;;;;4.37;2.80;;;13.90;99.90;;;;;;4926643;29;20650;-88
2021/08/03 02:47:46;;;;;;;2.77;2.57;;;13.90;99.90;;;;;;4919390;29;20638;-88
2021/08/03 02:50:15;;;;;;;6.20;2.50;;;13.80;99.90;;;;;;4919827;29;20639;-89
2021/08/03 02:52:47;;;;;;;4.20;2.43;;;13.80;99.90;;;;;;4929128;29;20674;-88
2021/08/03 02:55:17;;;;;;;2.50;2.30;;;13.80;99.90;;;;;;4923260;29;20663;-89
2021/08/03 02:57:48;;;;;;;2.17;1.90;;;13.80;99.90;;;;;;4925999;29;20644;-88
2021/08/03 03:00:15;;;;;;;3.47;2.40;;;13.80;99.90;;;;;;4924383;29;20643;-88
2021/08/03 03:02:45;;;;;;;2.20;2.00;;;13.80;99.90;;;;;;4926108;29;20980;-89
2021/08/03 03:05:15;;;;;;;3.53;2.10;;;13.80;99.90;;;;;;4922386;29;20658;-89
2021/08/03 03:07:47;;;;;;;2.73;1.70;;;13.80;99.90;;;;;;4922601;29;21015;-88
2021/08/03 03:10:20;;;;;;;1.77;1.67;;;13.80;99.90;;;;;;4926531;29;20997;-89
2021/08/03 03:12:52;;;;;;;2.60;2.40;;;13.80;99.90;;;;;;4919410;29;20671;-89
2021/08/03 03:15:20;;;;;;;2.20;1.87;;;13.80;99.90;;;;;;4920932;29;20673;-89
2021/08/03 03:17:47;;;;;;;2.47;2.30;;;13.70;99.90;;;;;;4922942;29;20705;-89
2021/08/03 03:20:17;;;;;;;4.20;2.60;;;13.70;99.90;;;;;;4923765;29;20644;-89
2021/08/03 03:22:47;;;;;;;2.33;2.20;;;13.70;99.90;;;;;;4922985;29;20620;-89
2021/08/03 03:25:19;;;;;;;2.33;2.13;;;13.70;99.90;;;;;;4921770;29;21119;-88
2021/08/03 03:27:50;;;;;;;4.13;2.23;;;13.70;99.90;;;;;;4921105;29;20860;-89
2021/08/03 03:30:17;;;;;;;2.60;2.40;;;13.70;99.90;;;;;;4921637;29;21068;-88
2021/08/03 03:32:46;;;;;;;4.37;2.20;;;13.60;99.90;;;;;;4922889;29;20672;-89
2021/08/03 03:35:16;;;;;;;4.33;2.03;;;13.60;99.90;;;;;;4924351;29;20678;-89
2021/08/03 03:37:45;;;;;;;3.00;2.27;;;13.50;99.90;;;;;;4922924;29;20631;-88
2021/08/03 03:40:17;;;;;;;2.53;2.33;;;13.50;99.90;;;;;;4924199;29;21004;-87
2021/08/03 03:42:44;;;;;;;2.60;2.00;;;13.50;99.90;;;;;;4917200;29;20644;-88
2021/08/03 03:45:13;;;;;;;3.03;2.80;;;13.50;99.90;;;;;;4923932;29;20651;-88
2021/08/03 03:47:48;;;;;;;5.87;2.70;;;13.50;99.90;;;;;;4915776;29;20624;-87
2021/08/03 03:50:19;;;;;;;3.27;2.97;;;13.50;99.90;;;;;;4923462;29;21041;-88
2021/08/03 03:52:53;;;;;;;2.77;2.57;;;13.50;99.90;;;;;;4913784;29;21142;-89
2021/08/03 03:55:22;;;;;;;2.93;2.60;;;13.40;99.90;;;;;;4921972;29;20651;-89
2021/08/03 03:57:50;;;;;;;4.90;2.63;;;13.40;99.90;;;;;;4920475;29;20692;-88
2021/08/03 04:00:19;;;;;;;3.43;2.50;;;13.40;99.90;;;;;;4921344;29;20639;-88
2021/08/03 04:02:49;;;;;;;3.00;2.10;;;13.40;99.90;;;;;;4923215;29;20631;-89
2021/08/03 04:05:17;;;;;;;3.20;2.90;;;13.30;99.90;;;;;;4916492;29;21012;-89
2021/08/03 04:07:49;;;;;;;3.27;2.50;;;13.30;99.90;;;;;;4916074;29;20632;-88
2021/08/03 04:10:30;;;;;;;3.60;2.57;;;13.40;99.90;;;;;;4920428;29;20751;-89
2021/08/03 04:12:58;;;;;;;2.77;2.50;;;13.30;99.90;;;;;;4921072;29;20635;-89
2021/08/03 04:15:25;;;;;;;3.03;2.73;;;13.30;99.90;;;;;;4919760;29;20695;-89
2021/08/03 04:17:52;;;;;;;3.37;3.07;;;13.40;99.90;;;;;;4906051;29;21171;-87
2021/08/03 04:20:19;;;;;;;3.90;3.00;;;13.40;99.90;;;;;;4922676;29;20642;-87
2021/08/03 04:22:46;;;;;;;3.10;2.50;;;13.40;99.90;;;;;;4927583;29;21097;-90
2021/08/03 04:25:13;;;;;;;5.43;2.80;;;13.40;99.90;;;;;;4922705;29;21238;-90
2021/08/03 04:27:41;;;;;;;3.23;2.87;;;13.40;99.90;;;;;;4921525;29;20658;-89
2021/08/03 04:30:10;;;;;;;3.80;3.47;;;13.40;99.90;;;;;;4921716;29;20635;-89
2021/08/03 04:32:37;;;;;;;3.80;3.50;;;13.40;99.90;;;;;;4920819;29;20672;-88
2021/08/03 04:35:04;;;;;;;4.63;3.90;;;13.50;99.90;;;;;;4922474;29;20623;-88
2021/08/03 04:37:37;;;;;;;3.23;3.00;;;13.40;99.90;;;;;;4919150;29;21193;-88
2021/08/03 04:40:05;;;;;;;3.43;3.00;;;13.50;99.90;;;;;;4922170;29;20638;-88
2021/08/03 04:42:32;;;;;;;4.07;3.70;;;13.50;99.90;;;;;;4921811;29;20627;-88
2021/08/03 04:45:00;;;;;;;4.37;3.10;;;13.40;99.90;;;;;;4922725;29;21319;-88
2021/08/03 04:47:27;;;;;;;3.67;3.20;;;13.50;99.90;;;;;;4916511;29;20624;-88
2021/08/03 04:49:54;;;;;;;4.00;3.70;;;13.50;99.90;;;;;;4922542;29;20627;-88
2021/08/03 04:52:21;;;;;;;5.10;2.90;;;13.50;99.90;;;;;;4922745;29;20663;-88
2021/08/03 04:54:47;;;;;;;5.90;3.80;;;13.60;99.90;;;;;;4923374;29;20667;-88
2021/08/03 04:57:14;;;;;;;4.90;4.03;;;13.60;99.90;;;;;;4921116;29;20655;-89
2021/08/03 04:59:41;;;;;;;4.77;3.70;;;13.60;99.90;;;;;;4920915;29;20659;-86
2021/08/03 05:02:09;;;;;;;4.53;2.77;;;13.70;99.90;;;;;;4920984;29;20666;-86
2021/08/03 05:04:36;;;;;;;3.83;3.50;;;13.70;99.90;;;;;;4924280;29;20646;-86
2021/08/03 05:07:04;;;;;;;3.90;3.33;;;13.70;99.90;;;;;;4921805;29;21001;-86
2021/08/03 05:09:31;;;;;;;3.10;2.90;;;13.70;99.90;;;;;;4921448;29;20630;-87
2021/08/03 05:12:18;;;;;;;6.10;3.23;;;13.70;99.90;;;;;;4923801;29;20666;-86
2021/08/03 05:14:49;;;;;;;2.97;2.77;;;13.80;99.90;;;;;;4920434;29;20662;-87
2021/08/03 05:17:21;;;;;;;3.80;2.70;;;13.80;99.90;;;;;;4923987;29;20651;-87
2021/08/03 05:19:49;;;;;;;4.10;3.17;;;13.90;99.90;;;;;;4915263;29;20635;-87
2021/08/03 05:22:16;;;;;;;4.00;3.00;;;13.90;99.90;;;;;;4920866;29;20631;-87
2021/08/03 05:24:43;;;;;;;6.00;2.90;;;13.90;99.90;;;;;;4921412;29;20658;-87
2021/08/03 05:27:10;;;;;;;2.90;2.70;;;14.00;99.90;;;;;;4922002;29;20623;-87
2021/08/03 05:29:37;;;;;;;4.10;3.30;;;14.00;99.90;;;;;;4924063;29;20666;-87
2021/08/03 05:32:07;;;;;;;4.57;2.90;;;14.00;99.90;;;;;;4921163;29;20675;-88
2021/08/03 05:34:35;;;;;;;3.93;3.07;;;14.10;99.90;;;;;;4922329;29;20679;-88
2021/08/03 05:37:03;;;;;;;7.47;3.30;;;14.10;99.90;;;;;;4923316;29;20627;-86
2021/08/03 05:39:30;;;;;;;3.20;2.90;;;14.10;99.90;;;;;;4922269;29;20664;-87
2021/08/03 05:41:57;;;;;;;6.20;3.10;;;14.20;99.90;;;;;;4924356;29;20659;-86
2021/08/03 05:44:24;;;;;;;3.40;2.87;;;14.10;99.90;;;;;;4922827;29;20655;-87
2021/08/03 05:46:51;;;;;;;7.00;3.23;;;14.20;99.90;;;;;;4919758;29;20643;-87
2021/08/03 05:49:17;;;;;;;6.63;3.30;;;14.30;99.90;;;;;;4917723;29;20666;-87
2021/08/03 05:51:46;;;;;;;7.20;3.30;;;14.30;99.90;;;;;;4929821;29;20635;-87
2021/08/03 05:54:12;;;;;;;3.30;2.87;;;14.40;99.90;;;;;;4926512;29;20655;-87
2021/08/03 05:56:41;;;;;;;6.93;3.13;;;14.40;99.90;;;;;;4926699;29;20666;-87
2021/08/03 05:59:08;;;;;;;5.00;3.10;;;14.50;99.90;;;;;;4925523;29;20666;-86
2021/08/03 06:01:35;;;;;;;5.30;3.37;;;14.50;99.90;;;;;;4923682;29;21087;-86
2021/08/03 06:04:03;;;;;;;5.10;3.10;;;14.60;99.90;;;;;;4929452;29;20631;-91
2021/08/03 06:06:38;;;;;;;2.70;2.50;;;14.70;99.90;;;;;;4923138;29;21009;-92
2021/08/03 06:09:09;;;;;;;4.77;2.93;;;14.70;99.90;;;;;;4924524;29;20638;-95
2021/08/03 06:11:40;;;;;;;7.70;3.40;;;14.80;99.90;;;;;;4925923;29;20632;-95
2021/08/03 06:14:10;;;;;;;5.40;2.90;;;14.80;99.90;;;;;;4927238;29;20631;-95
2021/08/03 06:16:37;;;;;;;3.27;2.97;;;14.90;99.90;;;;;;4920998;29;20684;-94
2021/08/03 06:19:06;;;;;;;3.50;3.20;;;14.90;99.90;;;;;;4922106;29;20830;-94
2021/08/03 06:21:34;;;;;;;6.33;3.43;;;15.00;99.90;;;;;;4925164;29;20672;-90
2021/08/03 06:24:01;;;;;;;3.33;3.03;;;15.10;99.90;;;;;;4925725;29;20647;-91
2021/08/03 06:26:30;;;;;;;3.97;2.47;;;15.20;99.90;;;;;;4919904;29;20659;-92
2021/08/03 06:28:57;;;;;;;4.03;3.20;;;15.30;99.90;;;;;;4923853;29;21046;-92
2021/08/03 06:31:28;;;;;;;3.50;2.60;;;15.40;99.90;;;;;;4926105;29;20660;-93
2021/08/03 06:33:55;;;;;;;3.07;2.77;;;15.40;99.90;;;;;;4921470;29;21206;-94
2021/08/03 06:36:21;;;;;;;2.73;2.53;;;15.40;99.90;;;;;;4927476;29;20644;-91
2021/08/03 06:38:49;;;;;;;2.67;2.13;;;15.50;99.90;;;;;;4923969;29;21023;-92
2021/08/03 06:41:26;;;;;;;2.50;2.30;;;15.60;99.90;;;;;;4927163;29;20659;-94
2021/08/03 06:43:58;;;;;;;3.90;2.47;;;15.60;99.90;;;;;;4925494;29;20643;-95
2021/08/03 06:46:27;;;;;;;2.30;2.10;;;15.70;99.90;;;;;;4926617;29;20646;-95
2021/08/03 06:48:57;;;;;;;2.93;2.00;;;15.80;99.90;;;;;;4932584;29;20650;-96
2021/08/03 06:51:26;;;;;;;2.43;2.10;;;16.00;99.90;;;;;;4925479;29;20743;-95
2021/08/03 06:53:57;;;;;;;3.37;2.20;;;16.20;99.90;;;;;;4927347;29;20686;-95
2021/08/03 06:56:25;;;;;;;3.07;2.07;;;16.40;99.90;;;;;;4928016;29;20635;-95
2021/08/03 06:59:03;;;;;;;3.40;2.10;;;16.50;99.90;;;;;;4934497;29;20628;-96
2021/08/03 07:01:39;;;;;;;2.60;2.00;;;16.60;99.90;;;;;;4932196;29;20711;-96
2021/08/03 07:04:07;;;;;;;4.13;2.53;;;16.90;99.90;;;;;;4933884;29;20668;-96
2021/08/03 07:06:36;;;;;;;3.00;2.13;;;17.00;99.90;;;;;;4935465;29;20670;-96
2021/08/03 07:09:06;;;;;;;3.07;2.00;;;17.10;99.90;;;;;;4933530;29;20961;-96
2021/08/03 07:11:33;;;;;;;3.20;2.00;;;17.20;99.90;;;;;;4931169;29;20650;-95
2021/08/03 07:14:02;;;;;;;3.37;1.50;;;17.20;99.90;;;;;;4926061;29;20935;-96
2021/08/03 07:16:30;;;;;;;4.57;1.97;;;17.30;99.90;;;;;;4920269;29;20642;-96
2021/08/03 07:18:57;;;;;;;2.90;1.60;;;17.30;99.90;;;;;;4923911;29;20663;-94
2021/08/03 07:21:25;;;;;;;3.83;1.80;;;17.40;99.90;;;;;;4926024;29;20642;-96
2021/08/03 07:23:54;;;;;;;5.83;1.90;;;17.40;99.90;;;;;;4924684;29;20659;-94
2021/08/03 07:26:21;;;;;;;2.03;1.80;;;17.50;99.90;;;;;;4925603;29;20650;-96
2021/08/03 07:28:48;;;;;;;2.23;1.80;;;17.70;99.90;;;;;;4927433;29;20770;-96
2021/08/03 07:31:16;;;;;;;6.57;1.97;;;17.80;99.90;;;;;;4930999;29;21178;-96
2021/08/03 07:33:43;;;;;;;1.70;1.27;;;18.00;99.90;;;;;;4922656;29;20686;-96
2021/08/03 07:36:10;;;;;;;3.40;1.73;;;18.10;99.90;;;;;;4922411;29;20647;-95
2021/08/03 07:38:37;;;;;;;2.30;1.67;;;18.30;99.90;;;;;;4921691;29;21018;-95
2021/08/03 07:41:04;;;;;;;4.80;2.03;;;18.30;99.90;;;;;;4922921;29;20722;-96
2021/08/03 07:43:31;;;;;;;5.43;1.70;;;18.50;99.90;;;;;;4928976;29;20671;-95
2021/08/03 07:45:58;;;;;;;3.93;2.07;;;18.50;99.90;;;;;;4921184;29;21015;-96
2021/08/03 07:48:26;;;;;;;3.20;1.70;;;18.50;99.90;;;;;;4921175;29;20774;-95
2021/08/03 07:50:53;;;;;;;2.50;2.00;;;18.60;99.90;;;;;;4924453;29;21222;-96
2021/08/03 07:53:20;;;;;;;2.07;1.87;;;18.70;99.90;;;;;;4920672;29;20674;-95
2021/08/03 07:55:47;;;;;;;3.00;1.70;;;18.70;99.90;;;;;;4921444;29;20639;-95
2021/08/03 07:58:14;;;;;;;2.40;1.63;;;18.70;99.90;;;;;;4927507;29;20671;-96
2021/08/03 08:00:41;;;;;;;2.03;1.70;;;18.70;99.90;;;;;;4927075;29;21006;-96
2021/08/03 08:03:09;;;;;;;3.83;2.00;;;18.80;99.90;;;;;;4929765;29;20754;-96
2021/08/03 08:05:38;;;;;;;2.50;1.80;;;18.90;99.90;;;;;;4922542;29;20839;-96
2021/08/03 08:08:07;;;;;;;4.70;2.00;;;19.00;99.90;;;;;;4924504;29;20624;-95
2021/08/03 08:10:37;;;;;;;2.47;1.50;;;19.10;99.90;;;;;;4928566;29;20644;-95
2021/08/03 08:13:04;;;;;;;3.00;1.73;;;19.30;99.90;;;;;;4923282;29;20672;-96
2021/08/03 08:15:30;;;;;;;4.97;2.20;;;19.50;99.90;;;;;;4921393;29;20667;-96
2021/08/03 08:17:57;;;;;;;1.87;1.30;;;19.60;99.90;;;;;;4918194;29;20654;-95
2021/08/03 08:20:24;;;;;;;2.23;1.40;;;19.60;99.90;;;;;;4920399;29;20681;-95
2021/08/03 08:22:52;;;;;;;3.37;1.57;;;19.70;99.90;;;;;;4921149;29;20833;-95
2021/08/03 08:25:21;;;;;;;1.50;1.40;;;19.80;99.90;;;;;;4921093;29;21002;-95
2021/08/03 08:27:52;;;;;;;2.00;1.83;;;19.90;99.90;;;;;;4926315;29;21038;-96
2021/08/03 08:30:19;;;;;;;2.03;1.93;;;19.90;99.90;;;;;;4927168;29;21198;-96
2021/08/03 08:32:46;;;;;;;2.73;1.90;;;19.90;99.90;;;;;;4927000;29;20735;-94
2021/08/03 08:35:13;;;;;;;4.90;2.10;;;20.00;99.90;;;;;;4925724;29;21158;-96
2021/08/03 08:37:48;;;;;;;2.30;1.67;;;20.10;99.90;;;;;;4923207;29;20659;-96
2021/08/03 08:40:17;;;;;;;2.10;1.70;;;20.20;99.90;;;;;;4917368;29;20639;-96
2021/08/03 08:42:45;;;;;;;1.90;1.70;;;20.00;99.90;;;;;;4920876;29;20660;-95
2021/08/03 08:45:17;;;;;;;2.40;1.67;;;20.00;99.90;;;;;;4925143;29;20631;-96
2021/08/03 08:47:45;;;;;;;6.40;1.60;;;20.20;99.90;;;;;;4919869;29;20969;-96
2021/08/03 08:50:14;;;;;;;2.20;1.93;;;20.30;99.90;;;;;;4927801;29;20671;-96
2021/08/03 08:52:43;;;;;;;7.67;1.70;;;20.30;99.90;;;;;;4926156;29;21188;-95
2021/08/03 08:55:11;;;;;;;1.97;1.77;;;20.50;99.90;;;;;;4920972;29;20667;-96
2021/08/03 08:57:40;;;;;;;2.93;1.80;;;20.60;99.90;;;;;;4917737;29;20714;-95
2021/08/03 09:00:10;;;;;;;3.77;2.07;;;20.60;99.90;;;;;;4928641;29;20643;-95
2021/08/03 09:02:40;;;;;;;5.80;2.27;;;20.60;99.90;;;;;;4926609;29;20986;-94
2021/08/03 09:05:08;;;;;;;2.70;1.70;;;20.70;99.90;;;;;;4924289;29;20663;-95
2021/08/03 12:13:53;;;;;;;2.67;2.13;;;23.10;99.90;;;;;;5899598;23;20615;-95
2021/08/03 13:20:11;;;;;;;1.60;1.17;;;26.30;99.90;;;;;;5044797;23;20712;-95
2021/08/03 13:22:38;;;;;;;2.27;1.10;;;26.20;99.20;;;;;;4928689;29;21220;-95
2021/08/03 13:25:06;;;;;;;2.03;1.10;;;26.30;98.20;;;;;;4915411;29;20663;-95
2021/08/03 13:27:33;;;;;;;1.43;1.20;;;26.40;96.10;;;;;;4899785;29;20656;-94
2021/08/03 13:30:00;;;;;;;1.10;1.00;;;26.30;94.30;;;;;;4908014;29;20640;-94
2021/08/03 13:32:27;;;;;;;1.07;0.83;;;25.90;95.90;;;;;;4899499;29;20999;-94
2021/08/03 13:34:54;;;;;;;1.20;1.10;;;25.50;95.80;;;;;;4898085;29;20676;-94
2021/08/03 13:37:23;;;;;;;1.27;1.17;;;25.20;97.20;;;;;;4904030;29;20668;-93
2021/08/03 13:39:50;;;;;;;2.57;0.93;;;24.90;99.00;;;;;;4902463;29;20683;-94
2021/08/03 13:42:19;;;;;;;1.13;0.83;;;24.60;99.40;;;;;;4896276;29;20647;-94
2021/08/03 13:44:47;;;;;;;0.90;0.90;;;24.30;99.90;;;;;;4902008;29;20664;-95
2021/08/03 13:47:15;;;;;;;0.80;0.80;;;24.10;99.90;;;;;;4895728;29;21316;-95
2021/08/03 13:49:42;;;;;;;1.33;1.10;;;23.80;99.90;;;;;;4904392;29;20692;-94
2021/08/03 13:52:10;;;;;;;1.13;1.03;;;23.60;99.90;;;;;;4902201;29;20970;-96
2021/08/03 13:54:44;;;;;;;1.20;0.90;;;23.40;99.90;;;;;;4903538;29;20694;-95
2021/08/03 13:57:11;;;;;;;0.90;0.77;;;23.10;99.90;;;;;;4905977;29;20647;-94
2021/08/03 13:59:38;;;;;;;1.33;1.23;;;22.70;99.90;;;;;;4904247;29;20647;-94
2021/08/03 14:02:07;;;;;;;0.77;0.77;;;22.70;99.90;;;;;;4905581;29;20696;-94
2021/08/03 14:04:34;;;;;;;1.43;0.80;;;22.40;99.90;;;;;;4904389;29;20676;-95
2021/08/03 14:07:01;;;;;;;1.07;0.93;;;22.20;99.90;;;;;;4920473;29;20728;-96
2021/08/03 14:09:28;;;;;;;0.97;0.90;;;22.00;99.90;;;;;;4921069;29;20696;-96
2021/08/03 14:11:59;;;;;;;1.30;0.80;;;21.70;99.90;;;;;;5108935;23;20682;-96
2021/08/03 14:14:28;;;;;;;1.30;0.87;;;21.50;99.90;;;;;;4922985;29;20679;-96
2021/08/03 14:16:55;;;;;;;1.20;1.10;;;21.50;99.90;;;;;;4916106;29;20695;-95
2021/08/03 14:19:23;;;;;;;1.03;0.90;;;21.40;99.90;;;;;;4916682;29;20650;-96
2021/08/03 14:21:50;;;;;;;1.20;1.10;;;21.30;99.90;;;;;;4908574;29;20641;-95
2021/08/03 14:24:19;;;;;;;1.63;1.10;;;21.20;99.90;;;;;;4895775;29;20669;-96
2021/08/03 14:26:57;;;;;;;1.10;0.90;;;21.20;99.90;;;;;;4897209;29;20642;-95
2021/08/03 14:29:36;;;;;;;1.10;1.00;;;21.10;99.90;;;;;;4909522;29;20712;-96
2021/08/03 14:32:04;;;;;;;0.77;0.77;;;21.10;99.90;;;;;;4903597;29;20685;-96
2021/08/03 14:34:32;;;;;;;1.17;0.83;;;21.20;99.90;;;;;;4900450;29;20716;-94
2021/08/03 14:37:00;;;;;;;0.90;0.90;;;21.20;99.90;;;;;;4894905;29;20648;-96
2021/08/03 14:39:36;;;;;;;1.93;0.77;;;21.20;99.90;;;;;;4902289;29;20636;-96
2021/08/03 14:42:03;;;;;;;1.70;1.20;;;21.40;99.90;;;;;;4907579;29;20700;-95
2021/08/03 14:44:30;;;;;;;1.10;1.00;;;21.50;99.90;;;;;;4910181;29;20732;-96
2021/08/03 14:46:58;;;;;;;1.13;1.00;;;21.70;99.90;;;;;;4900736;29;20641;-95
2021/08/03 14:49:51;;;;;;;0.97;0.93;;;22.20;99.90;;;;;;4910155;29;20649;-96
2021/08/03 14:55:32;;;;;;;1.30;0.90;;;23.60;99.90;;;;;;4902435;29;20745;-96
2021/08/03 14:58:31;;;;;;;2.40;0.90;;;23.80;99.90;;;;;;4905592;29;20647;-96
2021/08/03 15:01:00;;;;;;;1.20;1.00;;;23.90;99.90;;;;;;4911427;29;20644;-96
2021/08/03 15:06:31;;;;;;;1.17;1.07;;;24.20;99.90;;;;;;4920675;29;20696;-96
2021/08/03 15:08:58;;;;;;;1.20;1.10;;;24.30;99.90;;;;;;4909452;29;20712;-96
2021/08/03 15:29:36;;;;;;;0.70;0.60;;;28.30;91.20;;;;;;5319430;23;20729;-96
2021/08/03 15:32:04;;;;;;;3.30;1.10;;;28.60;90.30;;;;;;4939693;29;20638;-96
2021/08/03 15:34:31;;;;;;;1.10;0.90;;;28.70;90.80;;;;;;4940706;29;20690;-96
2021/08/03 15:37:00;;;;;;;0.87;0.77;;;28.80;90.20;;;;;;4940031;29;20667;-96
2021/08/03 15:39:29;;;;;;;4.53;2.40;;;28.60;89.40;;;;;;4940594;28;21007;-94
2021/08/03 15:41:56;;;;;;;0.80;0.80;;;28.50;90.00;;;;;;4938589;29;20648;-95
2021/08/03 15:44:29;;;;;;;2.23;2.07;;;28.50;90.00;;;;;;5281816;23;20686;-96
2021/08/03 15:46:57;;;;;;;2.43;2.33;;;28.30;90.50;;;;;;4953802;28;21093;-95
2021/08/03 15:49:25;;;;;;;0.93;0.63;;;28.00;90.90;;;;;;4968610;28;20667;-96
2021/08/03 15:55:15;;;;;;;2.90;2.70;;;27.80;91.40;;;;;;5134260;23;20710;-96
2021/08/03 15:57:42;;;;;;;3.63;3.53;;;27.70;91.90;;;;;;4927123;29;20644;-96
2021/08/03 16:00:10;;;;;;;2.93;2.70;;;27.50;91.60;;;;;;4931049;29;21215;-95
2021/08/03 16:02:37;;;;;;;2.70;2.60;;;27.00;93.10;;;;;;4911395;29;20646;-96
2021/08/03 16:05:04;;;;;;;2.57;2.47;;;26.60;94.10;;;;;;4914228;29;20637;-95
2021/08/03 16:07:30;;;;;;;2.77;2.57;;;26.30;94.70;;;;;;4911238;29;20628;-95
2021/08/03 16:09:58;;;;;;;2.90;2.70;;;25.90;95.50;;;;;;4914463;29;20628;-96
2021/08/03 16:12:30;;;;;;;2.60;2.50;;;25.50;97.10;;;;;;4914836;29;20620;-95
2021/08/03 16:14:57;;;;;;;2.93;2.73;;;25.10;98.20;;;;;;4912251;29;21298;-95
2021/08/03 16:17:29;;;;;;;2.40;2.30;;;24.80;99.80;;;;;;4921323;29;21196;-95
2021/08/03 16:19:56;;;;;;;2.90;2.70;;;24.40;99.90;;;;;;4911958;29;20628;-96
2021/08/03 16:22:23;;;;;;;2.50;2.40;;;24.30;99.90;;;;;;4915980;29;20735;-96
2021/08/03 16:24:50;;;;;;;2.60;2.50;;;24.10;99.90;;;;;;4916955;29;20632;-96
2021/08/03 16:27:17;;;;;;;2.37;2.20;;;23.80;99.90;;;;;;4911009;29;20771;-96
2021/08/03 16:29:46;;;;;;;2.70;2.60;;;23.60;99.90;;;;;;4921012;29;21008;-96
2021/08/03 16:32:14;;;;;;;2.20;2.10;;;23.40;99.90;;;;;;4912936;29;20653;-96
2021/08/03 16:34:48;;;;;;;2.50;2.40;;;23.30;99.90;;;;;;4916343;29;20686;-95
2021/08/03 16:37:20;;;;;;;3.40;1.60;;;23.20;99.90;;;;;;4919391;29;20726;-94
2021/08/03 16:39:47;;;;;;;1.50;1.33;;;23.10;99.90;;;;;;4912863;29;20640;-96
2021/08/03 16:42:16;;;;;;;2.00;1.43;;;23.00;99.90;;;;;;4909278;29;20651;-94
2021/08/03 16:44:46;;;;;;;2.33;1.30;;;22.80;99.90;;;;;;4926672;29;20667;-96
2021/08/03 16:47:16;;;;;;;2.50;2.40;;;22.70;99.90;;;;;;4927785;29;20669;-96
2021/08/03 16:49:45;;;;;;;3.53;3.33;;;22.50;99.90;;;;;;4937151;29;20654;-96
2021/08/03 16:52:21;;;;;;;3.50;3.20;;;22.40;99.90;;;;;;4938662;29;20640;-96
2021/08/03 16:55:15;;;;;;;3.00;2.80;;;22.30;99.90;;;;;;4938307;29;20700;-96
2021/08/03 16:57:45;;;;;;;4.30;4.10;;;22.10;99.90;;;;;;4944725;29;20707;-96
2021/08/03 17:00:46;;;;;;;5.03;4.83;;;22.00;99.90;;;;;;4951344;29;20704;-96
2021/08/03 17:03:26;;;;;;;3.97;3.87;;;21.90;99.90;;;;;;4941163;29;20663;-96
2021/08/03 17:09:04;;;;;;;2.40;1.47;;;21.80;99.90;;;;;;4943133;29;20627;-96
2021/08/03 17:54:49;;;;;;;1.67;1.47;;;19.90;99.90;;;;;;4973506;29;20735;-95
2021/08/03 17:57:29;;;;;;;1.17;1.07;;;19.80;99.90;;;;;;4976225;28;20615;-96
2021/08/03 18:00:06;;;;;;;1.10;1.00;;;19.70;99.90;;;;;;4976898;29;20642;-96
2021/08/03 18:02:45;;;;;;;3.00;1.10;;;19.70;99.90;;;;;;4977341;28;20625;-96
2021/08/03 18:05:19;;;;;;;1.80;1.23;;;19.60;99.90;;;;;;4965557;29;20604;-96
2021/08/03 18:07:47;;;;;;;1.23;1.13;;;19.50;99.90;;;;;;4966953;29;20633;-96
2021/08/03 18:10:19;;;;;;;1.30;1.20;;;19.30;99.90;;;;;;4958751;29;20666;-96
2021/08/03 18:15:38;;;;;;;1.90;1.50;;;19.20;99.90;;;;;;4942291;29;20715;-96
2021/08/03 18:18:10;;;;;;;1.73;1.63;;;19.10;99.90;;;;;;4957748;29;20711;-96
2021/08/03 18:20:39;;;;;;;1.10;1.00;;;19.00;99.90;;;;;;4958972;29;20627;-96
2021/08/03 18:23:26;;;;;;;1.57;1.27;;;19.00;99.90;;;;;;4955923;29;20747;-95
2021/08/03 18:26:05;;;;;;;2.40;1.17;;;18.90;99.90;;;;;;4956026;29;20655;-96
2021/08/03 18:28:43;;;;;;;1.70;1.30;;;18.80;99.90;;;;;;4962214;29;20643;-96